Aztec, New Mexico
Current Conditions -  °F | °C
As of 9:53 AM on Wednesday 26 Nov 2014 (Local Time) from KFMN Reporting Station
Clear Clear  
Wind Chill: 36°   Ceiling: Unl
Heat Index: 41°   Visibility: 10mi
Dew Point: 11°   Wind: 8mph
Humidity: 29%   Direction: 260°W
Pressure: 30.39"   Gusts: NA
Location:  36.83°N, 107.99°W
Report Text: KFMN 261653Z 26007KT 10SM CLR 05/M12 A3039 RMK AO2 SLP302 T00501117
Loading
Personal Weather Stations






























Interactive Weather Map New forecast layout! Learn more

10-Day Weather Forecast

Advertisements
Track Severe Weather on mobile